Terminal Aerodrome Forecast
Issued by NWS

Home | Current Version | Previous Version | Text Only | Print | Product List | Glossary On
Versions: 1 2 3 4 5 6 7 8 9 10 11 12 13 14 15
000
FTUS42 KTBW 011900 AAA
TAFRSW
TAF AMD
KRSW 011953Z 0120/0218 16012KT P6SM SCT050 SCT250
     FM012300 15007KT P6SM SCT050 SCT250
     FM020800 16005KT 6SM BR FEW007 SCT015 BKN035
     FM021500 21012G21KT P6SM VCSH SCT015 BKN025=

USA.gov is the U.S. government's official web portal to all federal, state and local government web resources and services.